Pulpca — PHMT — position and weather

sailwx.info

Track history (hours):
 
Tides and Currents Weather Stations Pressure Air Temp Water Temp Dewpoint Dewpoint Depression Visibility Wind Speed Wind Dir Waves Ship Positions

Pulpca

Last reported at 2015-Apr-18 06:22 UTC. Time now 2015-Apr-18 13:11 UTC.
Position N 55°21' E 014°35'.

Length 205 m; draft 7.3 m.

Type: Ship (hazmat cat A). MMSI: 245097000.

Date/timePositionNaut miles runAvg speedWind from/ knotsBaromVisibWave heightAir tempDewpointWater temp
2015-Apr-18 06:22N 55°21' E 014°35'1619.0
2015-Apr-18 05:33N 55°09' E 014°17'1918.6
2015-Apr-18 04:33N 54°58' E 013°51'1919.1
2015-Apr-18 03:33N 54°51' E 013°19'1918.9
2015-Apr-18 02:33N 54°46' E 012°48'1918.7
2015-Apr-18 01:33N 54°35' E 012°22'1918.8
2015-Apr-18 00:33N 54°22' E 011°59'1919.1
2015-Apr-17 23:33N 54°12' E 011°30'12 0.6
2015-Apr-17 02:33N 54°08' E 011°11'1817.7
2015-Apr-17 01:33N 54°17' E 011°36'1717.3
2015-Apr-17 00:33N 54°26' E 012°02'1515.3
2015-Apr-16 23:33N 54°37' E 012°20'1817.3
2015-Apr-16 22:30N 54°47' E 012°47'1617.5
2015-Apr-16 21:33N 54°53' E 013°13'1717.2
2015-Apr-16 20:33N 55°00' E 013°41'2516.7
2015-Apr-16 19:04N 55°13' E 014°18'38717.1
2015-Apr-15 20:32N 59°40' E 022°57'10 9.8
2015-Apr-15 19:33N 59°49' E 022°56'0 0.0
2015-Apr-15 03:33N 59°49' E 022°56'1110.5
2015-Apr-15 02:33N 59°42' E 023°13'1111.1
2015-Apr-15 01:33N 59°43' E 023°34'1111.4
2015-Apr-15 00:32N 59°45' E 023°57'6612.4
2015-Apr-14 19:14N 59°57' E 026°05'1014.1
2015-Apr-14 18:30N 60°00' E 026°25'1112.0
2015-Apr-14 17:33N 60°01' E 026°48'1211.7
2015-Apr-14 16:32N 60°02' E 027°12'7211.3
2015-Apr-14 10:07N 60°00' E 029°37'610.5
2015-Apr-14 09:33N 59°58' E 029°47'1110.9
2015-Apr-14 08:33N 59°54' E 030°08'3 3.0
2015-Apr-14 07:31N 59°54' E 030°14'0 0.0
2015-Apr-14 06:31N 59°54' E 030°14'0 0.0
2015-Apr-14 05:31N 59°54' E 030°14'0 0.0
2015-Apr-14 04:31N 59°54' E 030°14'0 0.0
2015-Apr-14 03:31N 59°54' E 030°14'0 0.0
2015-Apr-14 02:32N 59°54' E 030°14'0 0.0
2015-Apr-14 01:28N 59°54' E 030°14'0 0.0
2015-Apr-14 00:31N 59°54' E 030°14'0 0.0
2015-Apr-13 23:31N 59°54' E 030°14'0 0.0
2015-Apr-13 22:31N 59°54' E 030°14'0 0.0
2015-Apr-13 21:31N 59°54' E 030°14'0 0.0
2015-Apr-13 20:31N 59°54' E 030°14'0 0.0
2015-Apr-13 19:31N 59°54' E 030°14'0 0.0
2015-Apr-13 18:31N 59°54' E 030°14'0 0.0
2015-Apr-13 17:32N 59°54' E 030°14'0 0.0
2015-Apr-13 16:31N 59°54' E 030°14'0 0.4
2015-Apr-13 15:33N 59°53' E 030°13'6 6.1
2015-Apr-13 14:33N 59°55' E 030°01'1110.6
2015-Apr-13 13:33N 59°59' E 029°42'8710.5
2015-Apr-13 05:16N 59°59' E 026°48'1013.7
2015-Apr-13 04:33N 59°58' E 026°28'5513.8
2015-Apr-13 00:33N 59°46' E 024°41'1313.6
2015-Apr-12 23:33N 59°43' E 024°15'1413.3
2015-Apr-12 22:29N 59°42' E 023°47'1313.6
2015-Apr-12 21:33N 59°42' E 023°21'1212.4
2015-Apr-12 20:33N 59°47' E 022°59'2 0.5
2015-Apr-12 16:32N 59°49' E 022°56'34520.2
2015-Apr-11 23:28N 55°39' E 015°33'1920.8
2015-Apr-11 22:33N 55°30' E 015°02'2120.6
2015-Apr-11 21:34N 55°18' E 014°33'2121.0
2015-Apr-11 20:33N 55°02' E 014°09'2121.0
2015-Apr-11 19:33N 54°55' E 013°35'2121.1
2015-Apr-11 18:33N 54°48' E 013°00'2020.4
2015-Apr-11 17:33N 54°39' E 012°29'919.7
2015-Apr-11 17:06N 54°32' E 012°18'1120.1
2015-Apr-11 16:33N 54°24' E 012°06'2120.4
2015-Apr-11 15:33N 54°15' E 011°34'25 1.8
2015-Apr-11 02:08N 54°01' E 010°59'1017.6
2015-Apr-11 01:33N 54°08' E 011°12'1817.6
2015-Apr-11 00:34N 54°18' E 011°37'1717.4
2015-Apr-10 23:33N 54°26' E 012°04'1615.4
2015-Apr-10 22:33N 54°38' E 012°21'1817.7
2015-Apr-10 21:33N 54°47' E 012°46'1818.0
2015-Apr-10 20:33N 54°54' E 013°15'2017.7
2015-Apr-10 19:24N 55°01' E 013°49'1417.2
2015-Apr-10 18:33N 55°08' E 014°11'1817.7
2015-Apr-10 17:33N 55°22' E 014°30'1717.3
2015-Apr-10 16:33N 55°33' E 014°54'1817.6
2015-Apr-10 15:33N 55°41' E 015°21'1817.8
2015-Apr-10 14:33N 55°51' E 015°48'32017.6
2015-Apr-09 20:23N 59°38' E 022°51'1112.8
2015-Apr-09 19:32N 59°48' E 022°58'2 0.1
2015-Apr-09 08:16N 59°49' E 022°57'1 0.8
2015-Apr-09 07:29N 59°49' E 022°57'8 8.0
2015-Apr-09 06:33N 59°42' E 023°02'2 1.5
2015-Apr-09 05:30N 59°40' E 022°59'0 0.0
2015-Apr-09 04:33N 59°40' E 022°59'0 0.0
2015-Apr-09 03:21N 59°40' E 022°59'0 0.0
2015-Apr-09 01:24N 59°40' E 022°59'0 0.0
2015-Apr-08 23:18N 59°40' E 022°59'0 0.1
2015-Apr-08 22:30N 59°40' E 022°59'0 0.0
2015-Apr-08 21:12N 59°40' E 022°59'0 0.0
2015-Apr-08 20:18N 59°40' E 022°59'0 0.1
2015-Apr-08 19:18N 59°40' E 022°59'2 0.8
2015-Apr-08 16:32N 59°40' E 022°55'10 7.5
2015-Apr-08 15:13N 59°40' E 023°14'5 4.9
2015-Apr-08 14:17N 59°40' E 023°05'5 2.6
2015-Apr-08 12:29N 59°40' E 022°56'7 7.0
2015-Apr-08 11:33N 59°40' E 023°09'0 0.4
2015-Apr-08 10:29N 59°40' E 023°10'3 3.0
2015-Apr-08 09:33N 59°40' E 023°04'2 2.0
2015-Apr-08 08:30N 59°41' E 023°00'1 0.9
2015-Apr-08 07:25N 59°40' E 022°59'  
Track history (hours):
 
Tides and Currents Weather Stations Pressure Air Temp Water Temp Dewpoint Dewpoint Depression Visibility Wind Speed Wind Dir Waves Ship Positions

Pulpca

Last reported at 2015-Apr-18 06:22 UTC. Time now 2015-Apr-18 13:11 UTC.
Position N 55°21' E 014°35'.

Length 205 m; draft 7.3 m.

Type: Ship (hazmat cat A). MMSI: 245097000.

Date/timePositionNaut miles runAvg speedWind from/ knotsBaromVisibWave heightAir tempDewpointWater temp
2015-Apr-18 06:22N 55°21' E 014°35'1619.0
2015-Apr-18 05:33N 55°09' E 014°17'1918.6
2015-Apr-18 04:33N 54°58' E 013°51'1919.1
2015-Apr-18 03:33N 54°51' E 013°19'1918.9
2015-Apr-18 02:33N 54°46' E 012°48'1918.7
2015-Apr-18 01:33N 54°35' E 012°22'1918.8
2015-Apr-18 00:33N 54°22' E 011°59'1919.1
2015-Apr-17 23:33N 54°12' E 011°30'12 0.6
2015-Apr-17 02:33N 54°08' E 011°11'1817.7
2015-Apr-17 01:33N 54°17' E 011°36'1717.3
2015-Apr-17 00:33N 54°26' E 012°02'1515.3
2015-Apr-16 23:33N 54°37' E 012°20'1817.3
2015-Apr-16 22:30N 54°47' E 012°47'1617.5
2015-Apr-16 21:33N 54°53' E 013°13'1717.2
2015-Apr-16 20:33N 55°00' E 013°41'2516.7
2015-Apr-16 19:04N 55°13' E 014°18'38717.1
2015-Apr-15 20:32N 59°40' E 022°57'10 9.8
2015-Apr-15 19:33N 59°49' E 022°56'0 0.0
2015-Apr-15 03:33N 59°49' E 022°56'1110.5
2015-Apr-15 02:33N 59°42' E 023°13'1111.1
2015-Apr-15 01:33N 59°43' E 023°34'1111.4
2015-Apr-15 00:32N 59°45' E 023°57'6612.4
2015-Apr-14 19:14N 59°57' E 026°05'1014.1
2015-Apr-14 18:30N 60°00' E 026°25'1112.0
2015-Apr-14 17:33N 60°01' E 026°48'1211.7
2015-Apr-14 16:32N 60°02' E 027°12'7211.3
2015-Apr-14 10:07N 60°00' E 029°37'610.5
2015-Apr-14 09:33N 59°58' E 029°47'1110.9
2015-Apr-14 08:33N 59°54' E 030°08'3 3.0
2015-Apr-14 07:31N 59°54' E 030°14'0 0.0
2015-Apr-14 06:31N 59°54' E 030°14'0 0.0
2015-Apr-14 05:31N 59°54' E 030°14'0 0.0
2015-Apr-14 04:31N 59°54' E 030°14'0 0.0
2015-Apr-14 03:31N 59°54' E 030°14'0 0.0
2015-Apr-14 02:32N 59°54' E 030°14'0 0.0
2015-Apr-14 01:28N 59°54' E 030°14'0 0.0
2015-Apr-14 00:31N 59°54' E 030°14'0 0.0
2015-Apr-13 23:31N 59°54' E 030°14'0 0.0
2015-Apr-13 22:31N 59°54' E 030°14'0 0.0
2015-Apr-13 21:31N 59°54' E 030°14'0 0.0
2015-Apr-13 20:31N 59°54' E 030°14'0 0.0
2015-Apr-13 19:31N 59°54' E 030°14'0 0.0
2015-Apr-13 18:31N 59°54' E 030°14'0 0.0
2015-Apr-13 17:32N 59°54' E 030°14'0 0.0
2015-Apr-13 16:31N 59°54' E 030°14'0 0.4
2015-Apr-13 15:33N 59°53' E 030°13'6 6.1
2015-Apr-13 14:33N 59°55' E 030°01'1110.6
2015-Apr-13 13:33N 59°59' E 029°42'8710.5
2015-Apr-13 05:16N 59°59' E 026°48'1013.7
2015-Apr-13 04:33N 59°58' E 026°28'5513.8
2015-Apr-13 00:33N 59°46' E 024°41'1313.6
2015-Apr-12 23:33N 59°43' E 024°15'1413.3
2015-Apr-12 22:29N 59°42' E 023°47'1313.6
2015-Apr-12 21:33N 59°42' E 023°21'1212.4
2015-Apr-12 20:33N 59°47' E 022°59'2 0.5
2015-Apr-12 16:32N 59°49' E 022°56'34520.2
2015-Apr-11 23:28N 55°39' E 015°33'1920.8
2015-Apr-11 22:33N 55°30' E 015°02'2120.6
2015-Apr-11 21:34N 55°18' E 014°33'2121.0
2015-Apr-11 20:33N 55°02' E 014°09'2121.0
2015-Apr-11 19:33N 54°55' E 013°35'2121.1
2015-Apr-11 18:33N 54°48' E 013°00'2020.4
2015-Apr-11 17:33N 54°39' E 012°29'919.7
2015-Apr-11 17:06N 54°32' E 012°18'1120.1
2015-Apr-11 16:33N 54°24' E 012°06'2120.4
2015-Apr-11 15:33N 54°15' E 011°34'25 1.8
2015-Apr-11 02:08N 54°01' E 010°59'1017.6
2015-Apr-11 01:33N 54°08' E 011°12'1817.6
2015-Apr-11 00:34N 54°18' E 011°37'1717.4
2015-Apr-10 23:33N 54°26' E 012°04'1615.4
2015-Apr-10 22:33N 54°38' E 012°21'1817.7
2015-Apr-10 21:33N 54°47' E 012°46'1818.0
2015-Apr-10 20:33N 54°54' E 013°15'2017.7
2015-Apr-10 19:24N 55°01' E 013°49'1417.2
2015-Apr-10 18:33N 55°08' E 014°11'1817.7
2015-Apr-10 17:33N 55°22' E 014°30'1717.3
2015-Apr-10 16:33N 55°33' E 014°54'1817.6
2015-Apr-10 15:33N 55°41' E 015°21'1817.8
2015-Apr-10 14:33N 55°51' E 015°48'32017.6
2015-Apr-09 20:23N 59°38' E 022°51'1112.8
2015-Apr-09 19:32N 59°48' E 022°58'2 0.1
2015-Apr-09 08:16N 59°49' E 022°57'1 0.8
2015-Apr-09 07:29N 59°49' E 022°57'8 8.0
2015-Apr-09 06:33N 59°42' E 023°02'2 1.5
2015-Apr-09 05:30N 59°40' E 022°59'0 0.0
2015-Apr-09 04:33N 59°40' E 022°59'0 0.0
2015-Apr-09 03:21N 59°40' E 022°59'0 0.0
2015-Apr-09 01:24N 59°40' E 022°59'0 0.0
2015-Apr-08 23:18N 59°40' E 022°59'0 0.1
2015-Apr-08 22:30N 59°40' E 022°59'0 0.0
2015-Apr-08 21:12N 59°40' E 022°59'0 0.0
2015-Apr-08 20:18N 59°40' E 022°59'0 0.1
2015-Apr-08 19:18N 59°40' E 022°59'2 0.8
2015-Apr-08 16:32N 59°40' E 022°55'10 7.5
2015-Apr-08 15:13N 59°40' E 023°14'5 4.9
2015-Apr-08 14:17N 59°40' E 023°05'5 2.6
2015-Apr-08 12:29N 59°40' E 022°56'7 7.0
2015-Apr-08 11:33N 59°40' E 023°09'0 0.4
2015-Apr-08 10:29N 59°40' E 023°10'3 3.0
2015-Apr-08 09:33N 59°40' E 023°04'2 2.0
2015-Apr-08 08:30N 59°41' E 023°00'1 0.9
2015-Apr-08 07:25N 59°40' E 022°59'  

Dump ship's entire track history